Time;durP1;ratioP1;P1;durP2;ratioP2;P2;SDS_P1;SDS_P2;PMS_P1;PMS_P2;Temp;Humidity;BMP_temperature;BMP_pressure;BME280_temperature;BME280_humidity;BME280_pressure;Samples;Min_cycle;Max_cycle;Signal;HPM_P1;HPM_P2
2022/10/15 00:00:47;;;;;;;91.30;34.65;;;;;;;11.54;100.00;92598.50;4952505;29;20040;-78
2022/10/15 00:03:13;;;;;;;84.15;34.95;;;;;;;11.53;100.00;92602.16;4929537;29;20144;-78
2022/10/15 00:05:39;;;;;;;101.95;36.95;;;;;;;11.51;100.00;92607.72;4952983;29;20113;-78
2022/10/15 00:08:07;;;;;;;102.93;39.45;;;;;;;11.51;100.00;92612.19;4952352;29;20019;-78
2022/10/15 00:10:32;;;;;;;107.03;39.55;;;;;;;11.48;100.00;92613.53;4936581;29;20400;-78
2022/10/15 00:12:58;;;;;;;119.38;42.20;;;;;;;11.49;100.00;92616.94;4953604;28;20094;-77
2022/10/15 00:15:24;;;;;;;117.10;39.30;;;;;;;11.46;100.00;92621.69;4953890;28;20025;-77
2022/10/15 00:17:49;;;;;;;104.85;40.50;;;;;;;11.48;100.00;92621.38;4953536;28;20043;-77
2022/10/15 00:20:15;;;;;;;106.75;39.10;;;;;;;11.47;100.00;92614.59;4968569;28;20039;-77
2022/10/15 00:22:41;;;;;;;107.45;40.25;;;;;;;11.44;100.00;92613.34;4953525;29;20031;-77
2022/10/15 00:25:07;;;;;;;104.18;38.33;;;;;;;11.45;100.00;92609.63;4936316;29;20047;-77
2022/10/15 00:27:34;;;;;;;112.10;41.95;;;;;;;11.44;100.00;92615.97;4968375;28;20189;-77
2022/10/15 00:30:02;;;;;;;109.45;40.75;;;;;;;11.07;100.00;92563.63;4953766;29;20033;-77
2022/10/15 00:32:28;;;;;;;107.45;41.33;;;;;;;11.39;100.00;92612.63;4953541;29;20051;-77
2022/10/15 00:34:54;;;;;;;102.10;40.55;;;;;;;11.36;100.00;92613.97;4967712;28;20344;-77
2022/10/15 00:37:20;;;;;;;110.30;38.80;;;;;;;11.34;100.00;92608.25;4953236;28;20033;-77
2022/10/15 00:39:46;;;;;;;103.63;38.95;;;;;;;11.32;100.00;92612.22;4953179;28;20507;-77
2022/10/15 00:42:11;;;;;;;89.00;35.13;;;;;;;11.28;100.00;92611.25;4953268;29;20043;-77
2022/10/15 00:44:52;;;;;;;102.53;37.53;;;;;;;11.24;100.00;92603.97;4944433;29;20043;-77
2022/10/15 00:47:38;;;;;;;81.50;32.83;;;;;;;11.23;100.00;92599.00;4948943;29;20040;-77
2022/10/15 00:50:08;;;;;;;87.93;34.55;;;;;;;11.21;100.00;92593.25;4933745;29;20113;-78
2022/10/15 00:52:46;;;;;;;83.80;34.42;;;;;;;11.18;100.00;92594.63;4948810;29;20055;-77
2022/10/15 00:55:17;;;;;;;91.65;34.05;;;;;;;11.16;100.00;92588.13;4940696;29;20031;-77
2022/10/15 00:57:46;;;;;;;85.25;34.03;;;;;;;11.12;100.00;92587.13;4948655;29;20375;-77
2022/10/15 01:00:14;;;;;;;70.60;30.88;;;;;;;11.12;100.00;92597.59;4933965;29;20040;-78
2022/10/15 01:02:40;;;;;;;80.78;32.75;;;;;;;11.08;100.00;92592.19;4948953;29;20051;-77
2022/10/15 01:05:07;;;;;;;81.50;33.05;;;;;;;11.07;100.00;92605.56;4934726;29;20048;-77
2022/10/15 01:07:32;;;;;;;87.32;34.65;;;;;;;11.01;100.00;92597.78;4934829;29;20035;-79
2022/10/15 01:09:59;;;;;;;90.15;34.67;;;;;;;11.04;100.00;92599.81;4959811;28;20050;-77
2022/10/15 01:12:28;;;;;;;82.22;33.65;;;;;;;11.04;100.00;92591.97;4972117;28;20390;-79
2022/10/15 01:15:21;;;;;;;83.45;34.47;;;;;;;11.07;100.00;92595.06;4969740;28;20024;-76
2022/10/15 01:17:52;;;;;;;85.55;34.15;;;;;;;11.10;100.00;92591.88;4956239;28;20038;-76
2022/10/15 01:20:57;;;;;;;85.75;33.80;;;;;;;11.12;100.00;92597.59;4956851;29;20114;-77
2022/10/15 01:23:57;;;;;;;85.15;33.08;;;;;;;11.12;100.00;92592.38;4956879;29;20039;-79
2022/10/15 01:27:00;;;;;;;93.85;33.38;;;;;;;11.10;100.00;92581.41;4973318;28;20143;-78
2022/10/15 01:29:29;;;;;;;87.45;32.88;;;;;;;11.08;100.00;92583.53;4956340;28;20034;-77
2022/10/15 01:32:11;;;;;;;92.60;34.50;;;;;;;11.04;100.00;92591.97;4956564;29;20453;-78
2022/10/15 01:34:56;;;;;;;86.57;33.67;;;;;;;11.04;100.00;92591.19;4955463;29;20456;-78
2022/10/15 01:37:50;;;;;;;90.20;31.80;;;;;;;11.03;100.00;92597.47;4955258;29;20541;-78
2022/10/15 01:40:42;;;;;;;90.32;33.13;;;;;;;11.04;100.00;92596.44;4955159;29;20452;-77
2022/10/15 01:43:12;;;;;;;92.82;34.30;;;;;;;11.06;100.00;92588.28;4938854;29;20032;-78
2022/10/15 01:45:57;;;;;;;103.05;39.10;;;;;;;11.09;100.00;92582.47;4966784;28;20573;-78
2022/10/15 01:48:43;;;;;;;118.05;40.55;;;;;;;11.14;100.00;92583.16;4944551;28;20062;-78
2022/10/15 01:51:13;;;;;;;105.93;39.72;;;;;;;11.16;100.00;92577.63;4938643;29;20055;-78
2022/10/15 01:53:42;;;;;;;105.18;37.45;;;;;;;11.20;100.00;92568.13;4970013;28;20031;-78
2022/10/15 01:56:16;;;;;;;98.57;37.30;;;;;;;11.24;100.00;92574.38;4953463;28;20027;-78
2022/10/15 01:58:45;;;;;;;103.85;38.15;;;;;;;11.28;100.00;92574.56;4954014;28;20490;-78
2022/10/15 02:01:11;;;;;;;106.30;38.33;;;;;;;11.31;100.00;92574.78;4938571;29;20049;-78
2022/10/15 02:03:48;;;;;;;108.72;40.13;;;;;;;11.36;100.00;92566.81;4953963;29;20031;-78
2022/10/15 02:06:34;;;;;;;116.82;42.15;;;;;;;11.39;100.00;92554.97;4954671;29;20086;-78
2022/10/15 02:09:15;;;;;;;108.55;41.15;;;;;;;11.42;100.00;92560.44;4968691;28;20612;-78
2022/10/15 02:12:12;;;;;;;110.78;39.88;;;;;;;11.45;100.00;92561.69;4954568;29;20039;-78
2022/10/15 02:15:19;;;;;;;109.07;37.33;;;;;;;11.46;100.00;92558.78;4954220;29;20031;-78
2022/10/15 02:18:01;;;;;;;105.18;36.97;;;;;;;11.44;100.00;92547.81;4895746;29;20033;-78
2022/10/15 02:20:40;;;;;;;99.43;37.65;;;;;;;11.45;100.00;92544.09;4947140;29;20047;-77
2022/10/15 02:23:19;;;;;;;115.07;38.67;;;;;;;11.48;100.00;92549.84;4938407;29;20492;-78
2022/10/15 02:25:49;;;;;;;110.97;37.83;;;;;;;11.51;100.00;92544.81;4970440;28;20062;-78
2022/10/15 02:28:17;;;;;;;101.32;37.20;;;;;;;11.53;100.00;92544.50;4954314;28;20057;-78
2022/10/15 02:30:46;;;;;;;102.93;39.65;;;;;;;11.55;100.00;92547.59;4968925;28;20405;-78
2022/10/15 02:33:15;;;;;;;111.00;39.38;;;;;;;11.54;100.00;92559.19;4952988;28;20379;-78
2022/10/15 02:35:42;;;;;;;113.32;39.78;;;;;;;11.56;100.00;92555.19;4935025;29;20058;-78
2022/10/15 02:38:12;;;;;;;107.53;39.13;;;;;;;11.59;100.00;92561.69;4950907;28;20087;-78
2022/10/15 02:40:42;;;;;;;107.00;39.90;;;;;;;11.59;100.00;92562.47;4934627;29;20056;-78
2022/10/15 02:43:09;;;;;;;120.63;40.10;;;;;;;11.62;100.00;92569.78;4936027;29;20035;-78
2022/10/15 02:45:36;;;;;;;111.57;39.22;;;;;;;11.66;100.00;92562.09;4950982;29;20393;-77
2022/10/15 02:48:02;;;;;;;111.13;40.60;;;;;;;11.67;100.00;92561.03;4934391;29;20119;-78
2022/10/15 02:50:27;;;;;;;111.70;40.83;;;;;;;11.68;100.00;92567.81;4953999;29;20070;-78
2022/10/15 02:52:53;;;;;;;111.43;39.75;;;;;;;11.69;100.00;92568.63;4954624;28;20059;-78
2022/10/15 02:55:19;;;;;;;118.75;42.00;;;;;;;11.67;100.00;92555.78;4953940;29;20039;-78
2022/10/15 02:57:44;;;;;;;113.03;40.30;;;;;;;11.65;100.00;92542.97;4969324;28;20449;-77
2022/10/15 03:00:10;;;;;;;112.53;39.88;;;;;;;11.63;100.00;92533.84;4953659;29;20027;-78
2022/10/15 03:02:37;;;;;;;112.75;41.40;;;;;;;11.62;100.00;92527.06;4953835;28;20126;-78
2022/10/15 03:05:03;;;;;;;114.65;40.67;;;;;;;11.59;100.00;92523.16;4944355;29;20039;-78
2022/10/15 03:07:29;;;;;;;111.15;39.67;;;;;;;11.56;100.00;92528.22;4949883;29;20454;-78
2022/10/15 03:09:55;;;;;;;118.60;40.25;;;;;;;11.52;100.00;92535.09;4950104;28;20075;-78
2022/10/15 03:12:24;;;;;;;118.00;39.58;;;;;;;11.43;100.00;92529.75;4937718;29;20063;-78
2022/10/15 03:14:51;;;;;;;108.68;37.90;;;;;;;11.46;100.00;92532.56;4969312;28;20118;-78
2022/10/15 03:17:17;;;;;;;114.05;39.67;;;;;;;11.45;100.00;92527.63;4953440;28;20350;-78
2022/10/15 03:19:43;;;;;;;113.47;38.83;;;;;;;11.44;100.00;92521.59;4969306;28;20043;-77
2022/10/15 03:22:09;;;;;;;102.60;39.92;;;;;;;11.41;100.00;92516.91;4939016;29;20106;-78
2022/10/15 03:24:44;;;;;;;111.13;36.97;;;;;;;11.42;100.00;92517.72;4968993;28;20048;-78
2022/10/15 03:27:11;;;;;;;99.00;36.95;;;;;;;11.40;100.00;92515.38;4969150;28;20047;-78
2022/10/15 03:29:36;;;;;;;98.57;36.85;;;;;;;11.40;100.00;92510.13;4953081;28;20613;-78
2022/10/15 03:32:02;;;;;;;101.65;37.15;;;;;;;11.36;100.00;92506.53;4936928;29;20489;-78
2022/10/15 03:34:28;;;;;;;103.90;37.88;;;;;;;11.32;100.00;92508.16;4920859;29;20505;-78
2022/10/15 03:36:53;;;;;;;113.53;40.00;;;;;;;11.31;100.00;92511.88;4952877;29;20050;-78
2022/10/15 03:39:19;;;;;;;123.70;41.60;;;;;;;11.30;100.00;92518.16;4952723;28;20027;-78
2022/10/15 03:41:45;;;;;;;122.88;42.10;;;;;;;11.27;100.00;92505.66;4952581;29;20114;-77
2022/10/15 03:44:16;;;;;;;140.30;49.53;;;;;;;11.30;100.00;92509.53;4937280;29;20043;-78
2022/10/15 03:46:46;;;;;;;145.38;45.92;;;;;;;11.28;100.00;92509.84;4952927;29;20253;-77
2022/10/15 03:49:11;;;;;;;138.38;45.33;;;;;;;11.27;100.00;92508.28;4968727;28;20047;-78
2022/10/15 03:51:38;;;;;;;128.95;44.35;;;;;;;11.27;100.00;92510.91;4952364;29;20557;-78
2022/10/15 03:54:09;;;;;;;138.35;45.15;;;;;;;11.27;100.00;92512.75;4953013;29;20380;-77
2022/10/15 03:56:42;;;;;;;130.15;44.10;;;;;;;11.27;100.00;92516.13;4952759;29;20039;-78
2022/10/15 03:59:21;;;;;;;142.02;44.17;;;;;;;11.25;100.00;92513.03;4968792;28;20032;-78
2022/10/15 04:01:54;;;;;;;128.40;43.33;;;;;;;11.27;100.00;92526.63;4964769;28;20040;-78
2022/10/15 04:04:20;;;;;;;144.45;44.08;;;;;;;11.28;100.00;92527.38;4949602;29;20047;-78
2022/10/15 04:06:46;;;;;;;152.10;47.22;;;;;;;11.29;100.00;92529.72;4949270;29;20031;-78
2022/10/15 04:09:14;;;;;;;151.23;48.08;;;;;;;11.31;100.00;92532.84;4967358;28;20039;-77
2022/10/15 04:11:40;;;;;;;141.93;47.55;;;;;;;11.31;100.00;92524.22;4968520;28;20058;-78
2022/10/15 04:14:06;;;;;;;150.18;48.15;;;;;;;11.35;100.00;92527.78;4952382;29;20023;-78
2022/10/15 04:16:32;;;;;;;146.35;47.38;;;;;;;11.36;100.00;92524.88;4952628;29;20507;-78
2022/10/15 04:19:01;;;;;;;180.13;50.72;;;;;;;11.36;100.00;92518.88;4934067;29;20398;-78
2022/10/15 04:21:26;;;;;;;165.60;50.17;;;;;;;11.38;100.00;92522.75;4949641;29;20042;-77
2022/10/15 04:23:56;;;;;;;162.90;50.90;;;;;;;11.42;100.00;92518.50;4948869;28;20134;-78
2022/10/15 04:26:32;;;;;;;164.40;49.53;;;;;;;11.43;100.00;92514.78;4932996;29;20040;-78
2022/10/15 04:28:59;;;;;;;161.93;48.47;;;;;;;11.43;100.00;92512.16;4933121;29;20043;-78
2022/10/15 04:31:25;;;;;;;152.25;49.63;;;;;;;11.46;100.00;92514.22;4901676;29;20421;-78
2022/10/15 04:33:51;;;;;;;173.88;50.25;;;;;;;11.45;100.00;92510.03;4942243;29;20496;-78
2022/10/15 04:36:17;;;;;;;171.68;50.72;;;;;;;11.50;100.00;92518.88;4936323;29;20035;-78
2022/10/15 04:39:04;;;;;;;191.65;53.88;;;;;;;11.51;100.00;92520.44;4946449;29;20115;-78
2022/10/15 04:41:43;;;;;;;180.18;53.55;;;;;;;11.53;100.00;92520.91;4949870;28;20119;-78
2022/10/15 04:44:14;;;;;;;185.23;52.53;;;;;;;11.52;100.00;92520.13;4945127;29;20401;-78
2022/10/15 04:46:44;;;;;;;182.07;51.70;;;;;;;11.53;100.00;92520.91;4955722;29;20412;-78
2022/10/15 04:49:45;;;;;;;161.95;48.05;;;;;;;11.52;100.00;92516.75;4916759;29;20056;-78
2022/10/15 04:52:28;;;;;;;169.20;47.50;;;;;;;11.46;100.00;92514.22;4963338;28;20048;-78
2022/10/15 04:54:57;;;;;;;151.82;48.20;;;;;;;11.48;100.00;92516.53;4945650;29;20039;-78
2022/10/15 04:57:23;;;;;;;142.57;47.20;;;;;;;11.37;100.00;92513.34;4941289;29;20506;-78
2022/10/15 04:59:48;;;;;;;152.27;49.65;;;;;;;11.35;100.00;92518.09;4952369;28;20047;-78
2022/10/15 05:02:34;;;;;;;172.00;57.10;;;;;;;11.34;100.00;92518.38;4951655;29;20501;-78
2022/10/15 05:05:25;;;;;;;187.25;58.63;;;;;;;11.36;100.00;92517.00;4949857;29;20050;-79
2022/10/15 05:08:03;;;;;;;176.98;54.22;;;;;;;11.26;100.00;92522.44;4957800;28;20493;-78
2022/10/15 05:10:32;;;;;;;160.43;48.80;;;;;;;11.26;100.00;92525.06;4955514;28;20062;-79
2022/10/15 05:13:02;;;;;;;152.63;49.63;;;;;;;11.26;100.00;92527.69;4949864;28;20031;-78
2022/10/15 05:15:31;;;;;;;168.88;51.30;;;;;;;11.23;100.00;92530.88;4965033;28;20047;-77
2022/10/15 05:17:57;;;;;;;178.18;51.13;;;;;;;11.19;100.00;92525.44;4969374;28;20039;-77
2022/10/15 05:20:29;;;;;;;179.88;49.17;;;;;;;11.15;100.00;92523.69;4955223;29;20031;-78
2022/10/15 05:22:54;;;;;;;167.77;49.78;;;;;;;11.08;100.00;92518.03;4959392;29;20043;-78
2022/10/15 05:25:22;;;;;;;160.15;49.40;;;;;;;11.02;100.00;92515.50;4914761;29;20138;-78
2022/10/15 05:27:48;;;;;;;163.45;49.00;;;;;;;10.94;100.00;92520.63;4940739;29;20122;-78
2022/10/15 05:30:13;;;;;;;177.98;52.80;;;;;;;10.87;100.00;92507.88;4952086;28;20047;-78
2022/10/15 05:32:57;;;;;;;176.77;50.65;;;;;;;10.83;100.00;92512.16;4968280;28;20046;-78
2022/10/15 05:35:24;;;;;;;159.02;49.10;;;;;;;10.77;100.00;92505.44;4940728;29;20074;-78
2022/10/15 05:37:57;;;;;;;188.93;52.60;;;;;;;10.73;100.00;92507.06;4973136;28;20094;-78
2022/10/15 05:40:23;;;;;;;166.65;49.70;;;;;;;10.72;100.00;92510.78;4959221;29;20130;-78
2022/10/15 05:43:07;;;;;;;164.07;47.75;;;;;;;10.68;100.00;92504.53;4953071;29;20139;-78
2022/10/15 05:45:33;;;;;;;168.30;50.22;;;;;;;10.66;100.00;92511.91;4965190;28;20126;-78
2022/10/15 05:48:04;;;;;;;164.02;49.85;;;;;;;10.63;100.00;92506.16;4955894;28;20039;-78
2022/10/15 05:50:29;;;;;;;181.98;52.05;;;;;;;10.61;100.00;92505.69;4940996;29;20401;-78
2022/10/15 05:52:56;;;;;;;181.45;50.38;;;;;;;10.60;100.00;92509.38;4957020;29;20074;-78
2022/10/15 05:55:36;;;;;;;170.77;49.95;;;;;;;10.61;100.00;92512.75;4927606;29;20557;-78
2022/10/15 05:58:03;;;;;;;176.52;51.53;;;;;;;10.66;100.00;92520.53;4949924;28;20117;-78
2022/10/15 06:00:29;;;;;;;163.88;48.35;;;;;;;10.70;100.00;92515.50;4973287;28;20039;-78
2022/10/15 06:02:55;;;;;;;157.43;48.13;;;;;;;10.74;100.00;92503.38;4955414;29;20042;-78
2022/10/15 06:05:23;;;;;;;159.30;46.17;;;;;;;10.75;100.00;92510.19;4941975;28;20067;-78
2022/10/15 06:07:48;;;;;;;152.13;46.45;;;;;;;10.75;100.00;92508.34;4948785;29;20128;-78
2022/10/15 06:10:14;;;;;;;172.95;46.78;;;;;;;10.74;100.00;92517.28;4957242;28;20452;-78
2022/10/15 06:12:41;;;;;;;150.75;45.35;;;;;;;10.73;100.00;92522.78;4951579;28;20054;-77
2022/10/15 06:15:07;;;;;;;144.32;44.55;;;;;;;10.71;100.00;92522.28;4955739;28;20566;-78
2022/10/15 06:17:33;;;;;;;149.18;44.00;;;;;;;10.73;100.00;92528.03;4938172;29;20118;-77
2022/10/15 06:19:58;;;;;;;138.43;43.97;;;;;;;10.75;100.00;92528.50;4958141;28;20035;-79
2022/10/15 06:22:24;;;;;;;133.38;41.63;;;;;;;10.80;100.00;92538.91;4953396;29;20078;-75
2022/10/15 06:24:50;;;;;;;113.72;37.28;;;;;;;10.78;100.00;92538.41;4944788;29;20039;-77
2022/10/15 06:27:15;;;;;;;107.00;35.65;;;;;;;10.81;100.00;92548.34;4954248;28;20039;-76
2022/10/15 06:29:41;;;;;;;105.88;35.63;;;;;;;10.83;100.00;92551.44;4964667;28;20500;-76
2022/10/15 06:32:10;;;;;;;112.28;36.70;;;;;;;10.88;100.00;92551.34;4964478;28;20035;-76
2022/10/15 06:34:43;;;;;;;110.50;36.80;;;;;;;10.87;100.00;92538.53;4943759;29;20051;-76
2022/10/15 06:37:09;;;;;;;118.68;39.40;;;;;;;10.90;100.00;92549.22;4943836;29;20510;-76
2022/10/15 06:39:35;;;;;;;91.45;33.00;;;;;;;10.92;100.00;92552.34;4939878;28;20110;-76
2022/10/15 06:42:00;;;;;;;93.72;34.40;;;;;;;10.93;100.00;92559.13;4938344;29;20039;-75
2022/10/15 06:44:38;;;;;;;104.28;36.90;;;;;;;10.98;100.00;92558.28;4966711;28;20055;-77
2022/10/15 06:47:04;;;;;;;122.15;36.17;;;;;;;11.07;100.00;92568.88;4941614;29;20070;-77
2022/10/15 06:49:30;;;;;;;99.78;36.65;;;;;;;11.15;100.00;92570.84;4943849;29;20529;-76
2022/10/15 06:51:55;;;;;;;106.80;36.42;;;;;;;11.26;100.00;92569.63;4949310;29;20156;-78
2022/10/15 06:54:21;;;;;;;113.82;36.80;;;;;;;11.32;100.00;92557.97;4953899;29;20047;-77
2022/10/15 06:56:46;;;;;;;102.95;35.15;;;;;;;11.51;100.00;92563.16;4956757;29;20528;-78
2022/10/15 06:59:12;;;;;;;96.60;34.00;;;;;;;11.62;100.00;92574.25;4963225;28;20032;-78
2022/10/15 07:01:38;;;;;;;96.38;35.15;;;;;;;12.28;100.00;92582.72;4949831;29;20039;-77
2022/10/15 07:04:03;;;;;;;92.55;32.95;;;;;;;12.43;100.00;92568.50;4950426;29;20027;-78
2022/10/15 07:06:29;;;;;;;103.40;34.08;;;;;;;13.14;100.00;92574.00;4964510;28;20417;-77
2022/10/15 07:08:54;;;;;;;83.43;33.35;;;;;;;14.36;100.00;92574.56;4950671;28;20438;-77
2022/10/15 07:11:20;;;;;;;79.72;30.35;;;;;;;15.38;100.00;92570.75;4950277;28;20039;-78
2022/10/15 07:13:45;;;;;;;76.40;29.33;;;;;;;16.19;100.00;92567.25;4962430;28;20049;-79
2022/10/15 07:16:12;;;;;;;63.50;27.88;;;;;;;16.77;100.00;92574.66;4949436;29;20134;-79
2022/10/15 07:18:38;;;;;;;74.72;29.90;;;;;;;17.32;95.26;92578.19;4961297;28;20035;-78
2022/10/15 07:21:06;;;;;;;64.93;27.35;;;;;;;17.35;87.08;92577.50;4957696;28;20035;-79
2022/10/15 07:23:31;;;;;;;58.95;26.83;;;;;;;16.99;89.22;92570.97;4951926;29;20039;-77
2022/10/15 07:25:58;;;;;;;63.30;27.77;;;;;;;16.97;90.02;92563.34;4922625;29;20087;-77
2022/10/15 07:28:24;;;;;;;46.08;20.05;;;;;;;16.73;84.24;92566.63;4960049;28;20043;-77
2022/10/15 07:30:50;;;;;;;51.22;22.80;;;;;;;16.16;89.37;92567.09;4960011;28;20040;-79
2022/10/15 07:33:15;;;;;;;69.57;28.00;;;;;;;15.56;95.37;92569.63;4949509;28;20039;-78
2022/10/15 07:35:49;;;;;;;64.75;26.33;;;;;;;15.64;97.35;92575.19;4954193;28;20150;-78
2022/10/15 07:38:16;;;;;;;66.00;30.42;;;;;;;15.30;100.00;92576.81;4956959;28;20126;-78
2022/10/15 07:40:42;;;;;;;91.20;32.25;;;;;;;15.28;100.00;92582.41;4947110;28;20062;-78
2022/10/15 07:43:08;;;;;;;68.80;28.50;;;;;;;15.05;100.00;92584.44;4950044;28;20023;-78
2022/10/15 07:45:35;;;;;;;72.25;28.75;;;;;;;14.68;100.00;92586.59;4958550;28;20050;-78
2022/10/15 07:48:01;;;;;;;65.50;26.75;;;;;;;14.57;100.00;92586.13;4949664;28;20099;-77
2022/10/15 07:50:26;;;;;;;60.03;25.73;;;;;;;14.67;100.00;92598.22;4949004;29;20650;-78
2022/10/15 07:52:57;;;;;;;59.58;24.70;;;;;;;14.64;100.00;92596.19;4944088;28;20066;-81
2022/10/15 07:55:22;;;;;;;68.50;25.17;;;;;;;14.50;100.00;92600.78;4966875;28;20074;-81
2022/10/15 07:57:49;;;;;;;67.88;27.85;;;;;;;14.52;100.00;92595.97;4944845;28;20035;-78
2022/10/15 08:00:15;;;;;;;60.38;25.63;;;;;;;14.77;100.00;92595.28;4945928;28;20127;-78
2022/10/15 08:02:41;;;;;;;56.45;24.02;;;;;;;14.90;100.00;92595.44;4955721;29;20043;-79
2022/10/15 08:05:07;;;;;;;60.78;26.63;;;;;;;14.99;100.00;92594.38;4957692;29;20502;-78
2022/10/15 08:07:33;;;;;;;64.60;25.52;;;;;;;15.14;100.00;92605.53;4969846;28;20047;-78
2022/10/15 08:10:00;;;;;;;80.65;29.15;;;;;;;15.53;100.00;92599.25;4937991;29;20031;-78
2022/10/15 08:12:25;;;;;;;75.68;30.00;;;;;;;15.65;97.95;92600.47;4954301;29;20035;-78
2022/10/15 08:14:51;;;;;;;82.35;32.67;;;;;;;15.47;95.43;92597.91;4953611;29;20019;-78
2022/10/15 08:17:16;;;;;;;63.22;26.88;;;;;;;15.22;98.01;92601.31;4964156;28;20137;-79
2022/10/15 08:19:42;;;;;;;57.38;24.88;;;;;;;14.95;100.00;92601.34;4969387;28;20038;-77
2022/10/15 08:22:08;;;;;;;78.68;24.35;;;;;;;14.64;100.00;92600.69;4954439;29;20046;-77
2022/10/15 08:24:33;;;;;;;50.25;22.02;;;;;;;14.57;100.00;92595.88;4953264;28;20024;-77
2022/10/15 08:26:59;;;;;;;61.67;32.47;;;;;;;14.48;100.00;92597.69;4954230;28;20032;-77
2022/10/15 08:29:24;;;;;;;70.82;29.23;;;;;;;14.49;100.00;92593.97;4969468;28;20503;-77
2022/10/15 08:31:50;;;;;;;57.97;25.85;;;;;;;14.36;100.00;92598.28;4951707;28;20075;-77
2022/10/15 08:34:22;;;;;;;56.90;24.67;;;;;;;14.40;100.00;92601.84;4954183;28;20043;-77
2022/10/15 08:36:47;;;;;;;64.50;26.52;;;;;;;14.56;100.00;92599.59;4952549;28;20050;-78
2022/10/15 08:39:13;;;;;;;63.50;28.92;;;;;;;14.97;100.00;92601.00;4952608;28;20091;-77
2022/10/15 08:41:58;;;;;;;69.43;28.10;;;;;;;15.14;100.00;92608.16;4954927;29;20043;-78
2022/10/15 08:44:30;;;;;;;93.57;33.80;;;;;;;15.84;96.69;92614.13;4934674;29;20412;-78
2022/10/15 08:47:04;;;;;;;96.22;33.75;;;;;;;16.09;95.69;92601.94;4942688;29;20454;-78
2022/10/15 08:49:37;;;;;;;72.90;30.45;;;;;;;16.20;92.25;92602.34;4955013;28;20123;-78
2022/10/15 08:52:17;;;;;;;80.35;31.58;;;;;;;15.70;94.17;92602.97;4953122;28;20075;-78
2022/10/15 08:54:43;;;;;;;78.05;32.47;;;;;;;15.55;95.93;92606.88;4960449;28;20480;-78
2022/10/15 08:57:41;;;;;;;66.18;28.73;;;;;;;15.40;98.58;92602.84;4947620;29;20031;-77
2022/10/15 09:00:21;;;;;;;58.65;27.73;;;;;;;15.18;100.00;92606.47;4932027;29;20051;-78
2022/10/15 09:03:18;;;;;;;66.65;28.45;;;;;;;15.03;100.00;92609.56;4955811;29;20031;-78
2022/10/15 09:06:01;;;;;;;56.35;26.88;;;;;;;15.46;100.00;92603.47;4935140;29;20093;-79
2022/10/15 09:08:40;;;;;;;53.25;24.83;;;;;;;15.26;100.00;92608.28;4944228;29;20035;-78
2022/10/15 09:11:11;;;;;;;68.13;27.17;;;;;;;15.96;100.00;92601.06;4943616;28;20032;-78
2022/10/15 09:13:41;;;;;;;65.45;26.92;;;;;;;15.86;97.58;92600.63;4973770;28;20031;-79
2022/10/15 09:16:16;;;;;;;53.10;25.95;;;;;;;16.09;96.48;92598.53;4949937;28;20031;-78
2022/10/15 09:18:48;;;;;;;62.45;26.20;;;;;;;15.82;97.33;92608.38;4940936;29;20031;-79
2022/10/15 09:21:14;;;;;;;;;;;;;;;15.88;99.07;92620.34;4945406;28;20046;-78
2022/10/15 09:23:42;;;;;;;59.70;26.25;;;;;;;15.87;99.53;92626.69;4962217;28;19919;-78
2022/10/15 09:26:10;;;;;;;58.90;26.27;;;;;;;15.90;100.00;92623.44;4952002;28;20035;-78
2022/10/15 09:28:50;;;;;;;61.45;27.40;;;;;;;16.08;98.15;92623.38;4940500;29;20040;-78
2022/10/15 09:31:24;;;;;;;70.07;28.20;;;;;;;16.74;94.59;92623.66;4946890;28;20042;-78
2022/10/15 09:33:53;;;;;;;53.17;25.90;;;;;;;16.16;99.19;92625.97;4954526;28;20103;-80
2022/10/15 09:36:33;;;;;;;62.13;29.23;;;;;;;16.02;100.00;92626.19;4949898;28;20042;-78
2022/10/15 09:39:17;;;;;;;74.28;33.65;;;;;;;16.10;100.00;92627.25;4960186;28;20529;-80
2022/10/15 09:42:29;;;;;;;69.57;31.10;;;;;;;16.74;98.96;92628.97;4956496;28;20050;-81
2022/10/15 09:45:00;;;;;;;69.15;31.40;;;;;;;17.16;93.09;92639.59;4941937;28;20043;-79
2022/10/15 09:47:31;;;;;;;60.05;29.38;;;;;;;17.17;92.44;92627.91;4954322;28;20054;-78
2022/10/15 09:50:04;;;;;;;61.00;26.55;;;;;;;17.31;91.04;92630.28;4941540;29;20044;-78
2022/10/15 09:52:52;;;;;;;53.30;22.35;;;;;;;17.53;89.42;92634.47;4941820;29;20055;-79
2022/10/15 09:55:35;;;;;;;48.55;23.65;;;;;;;17.54;88.61;92635.25;4957973;28;20613;-78
2022/10/15 09:58:07;;;;;;;45.05;19.02;;;;;;;17.39;90.59;92626.81;4949658;28;20118;-78
2022/10/15 10:00:57;;;;;;;56.28;26.27;;;;;;;17.71;90.35;92635.09;4956621;28;20039;-78
2022/10/15 10:03:29;;;;;;;50.30;25.80;;;;;;;17.64;90.69;92640.13;4971035;28;20055;-78
2022/10/15 10:06:09;;;;;;;59.63;27.80;;;;;;;17.77;88.94;92633.03;4959059;28;20035;-79
2022/10/15 10:08:50;;;;;;;63.58;27.25;;;;;;;18.10;88.48;92633.00;4975433;28;20070;-77
2022/10/15 10:11:19;;;;;;;65.30;28.08;;;;;;;18.12;87.43;92645.91;4955414;28;20042;-77
2022/10/15 10:13:52;;;;;;;61.88;29.23;;;;;;;18.05;86.64;92641.94;4951987;28;20053;-79
2022/10/15 10:16:20;;;;;;;61.80;28.30;;;;;;;18.28;85.19;92633.56;4957030;29;20066;-77
2022/10/15 10:19:02;;;;;;;79.70;36.42;;;;;;;18.34;83.27;92632.25;4948592;28;20090;-77
2022/10/15 10:21:38;;;;;;;73.57;35.70;;;;;;;17.51;85.74;92644.59;4969667;28;20039;-77
2022/10/15 10:24:30;;;;;;;66.97;29.35;;;;;;;17.56;88.57;92628.53;4953445;28;20465;-77
2022/10/15 10:27:00;;;;;;;74.53;31.33;;;;;;;17.89;85.77;92638.38;4953420;28;20056;-78
2022/10/15 10:29:27;;;;;;;54.97;26.25;;;;;;;18.16;86.15;92631.69;4955570;28;20501;-79
2022/10/15 10:31:53;;;;;;;70.85;32.80;;;;;;;18.39;86.59;92634.69;4955797;28;20050;-78
2022/10/15 10:34:30;;;;;;;71.72;32.00;;;;;;;18.25;82.70;92637.66;4941107;29;20039;-78
2022/10/15 10:37:01;;;;;;;;;;;;;;;18.57;82.40;92640.53;4955518;28;20488;-77
2022/10/15 10:39:29;;;;;;;81.47;31.45;;;;;;;18.08;84.49;92638.63;4935561;29;20333;-77
2022/10/15 10:41:58;;;;;;;76.55;31.55;;;;;;;17.60;87.07;92641.88;4942999;28;20436;-76
2022/10/15 10:44:33;;;;;;;86.18;35.00;;;;;;;17.14;89.94;92641.03;4948884;29;20497;-77
2022/10/15 10:47:14;;;;;;;68.47;28.95;;;;;;;17.16;89.47;92644.91;4944189;29;20032;-77
2022/10/15 10:49:48;;;;;;;71.50;31.10;;;;;;;17.06;88.09;92632.81;4949519;29;20031;-76
2022/10/15 10:52:35;;;;;;;69.38;28.67;;;;;;;17.03;87.15;92630.81;4945654;29;20051;-79
2022/10/15 10:55:11;;;;;;;69.53;31.98;;;;;;;17.01;89.97;92634.88;4946857;29;20062;-78
2022/10/15 10:57:46;;;;;;;53.78;23.80;;;;;;;17.16;89.40;92630.91;4953148;28;20472;-75
2022/10/15 11:00:34;;;;;;;66.30;30.60;;;;;;;17.20;90.00;92634.44;4936278;29;20115;-75
2022/10/15 11:02:59;;;;;;;54.90;22.40;;;;;;;17.09;87.42;92628.78;4948270;28;20054;-75
2022/10/15 11:05:28;;;;;;;71.93;30.08;;;;;;;17.22;88.01;92629.59;4950602;29;20244;-76
2022/10/15 11:07:59;;;;;;;77.38;32.42;;;;;;;17.00;86.86;92641.25;4954103;28;20035;-75
2022/10/15 11:10:33;;;;;;;77.55;32.55;;;;;;;16.91;84.55;92643.19;4954338;29;20049;-77
2022/10/15 11:13:44;;;;;;;79.15;33.95;;;;;;;17.05;86.27;92635.78;4952914;29;20579;-81
2022/10/15 11:16:15;;;;;;;;;;;;;;;16.71;87.02;92626.19;4948790;28;20412;-76
2022/10/15 11:18:54;;;;;;;83.38;33.70;;;;;;;16.64;86.57;92619.53;4951970;28;19918;-76
2022/10/15 11:21:26;;;;;;;70.68;29.67;;;;;;;16.34;89.43;92625.91;4963003;28;20035;-76
2022/10/15 11:24:09;;;;;;;84.13;33.85;;;;;;;16.13;90.42;92626.63;4959078;28;20113;-75
2022/10/15 11:26:40;;;;;;;78.93;32.28;;;;;;;16.43;89.37;92619.47;4965412;28;20089;-78
2022/10/15 11:29:33;;;;;;;71.40;30.35;;;;;;;16.36;89.68;92621.84;4966528;28;20508;-77